Terminal Aerodrome Forecast
Issued by NWS

Current Version | Previous Version | Graphics & Text | Print | Product List | Glossary On
Versions: 1 2 3 4 5 6 7 8 9 10 11 12 13 14 15 16 17 18 19 20 21 22
000
FTUS41 KRLX 171700
TAFCKB
TAF
KCKB 171736Z 1718/1818 26010G17KT 6SM -SHSN SCT015 OVC025
      TEMPO 1718/1720 3SM -SHSN BR BKN015
     FM172300 27006KT P6SM OVC022
     FM180500 27006KT P6SM OVC015
     FM181400 27006KT P6SM BKN020=

USA.gov is the U.S. government's official web portal to all federal, state and local government web resources and services.